createdAt,value
2023-02-18T00:00:15.283Z,99460.97
2023-02-18T00:02:43.898Z,99459.47
2023-02-18T00:05:12.372Z,99446.19
2023-02-18T00:07:42.098Z,99451.72
2023-02-18T00:10:13.858Z,99450.00
2023-02-18T00:12:42.657Z,99448.28
2023-02-18T00:15:12.952Z,99447.88
2023-02-18T00:17:41.487Z,99438.91
2023-02-18T00:20:10.428Z,99445.16
2023-02-18T00:22:38.867Z,99440.81
2023-02-18T00:25:07.812Z,99431.44
2023-02-18T00:27:36.322Z,99423.09
2023-02-18T00:30:06.006Z,99432.63
2023-02-18T00:32:37.715Z,99426.22
2023-02-18T00:35:06.537Z,99424.28
2023-02-18T00:37:36.278Z,99420.09
2023-02-18T00:40:05.405Z,99433.88
2023-02-18T00:42:34.018Z,99428.38
2023-02-18T00:45:02.523Z,99421.41
2023-02-18T00:47:32.406Z,99424.41
2023-02-18T00:50:03.219Z,99419.00
2023-02-18T00:52:31.799Z,99413.69
2023-02-18T00:55:02.392Z,99411.53
2023-02-18T00:57:31.383Z,99420.03
2023-02-18T00:59:59.837Z,99403.91
2023-02-18T01:02:28.397Z,99388.75
2023-02-18T01:04:56.857Z,99406.31
2023-02-18T01:07:26.846Z,99405.56
2023-02-18T01:09:55.425Z,99396.16
2023-02-18T01:12:23.817Z,99389.50
2023-02-18T01:14:52.296Z,99391.53
2023-02-18T01:17:20.788Z,99387.28
2023-02-18T01:19:49.406Z,99387.34
2023-02-18T01:22:17.762Z,99385.50
2023-02-18T01:24:47.678Z,99379.78
2023-02-18T01:27:16.146Z,99371.53
2023-02-18T01:29:44.575Z,99365.97
2023-02-18T01:32:13.140Z,99358.00
2023-02-18T01:34:42.846Z,99361.25
2023-02-18T01:37:11.396Z,99346.88
2023-02-18T01:39:39.964Z,99341.91
2023-02-18T01:42:19.948Z,99337.00
2023-02-18T01:44:49.671Z,99341.81
2023-02-18T01:47:19.369Z,99337.94
2023-02-18T01:49:51.493Z,99333.66
2023-02-18T01:52:24.210Z,99327.75
2023-02-18T01:54:57.471Z,99323.78
2023-02-18T01:57:31.166Z,99322.97
2023-02-18T02:00:02.969Z,99315.66
2023-02-18T02:02:37.918Z,99314.91
2023-02-18T02:05:06.814Z,99306.41
2023-02-18T02:07:38.793Z,99312.22
2023-02-18T02:10:09.585Z,99306.31
2023-02-18T02:12:52.700Z,99297.78
2023-02-18T02:15:36.157Z,99292.66
2023-02-18T02:18:21.143Z,99292.03
2023-02-18T02:21:26.972Z,99290.25
2023-02-18T02:24:29.552Z,99284.84
2023-02-18T02:27:21.169Z,99273.00
2023-02-18T02:30:29.031Z,99278.59
2023-02-18T02:33:26.836Z,99274.69
2023-02-18T02:35:59.579Z,99269.97
2023-02-18T02:38:38.096Z,99265.81
2023-02-18T02:41:19.633Z,99261.03
2023-02-18T02:43:58.314Z,99260.03
2023-02-18T02:46:31.938Z,99267.13
2023-02-18T02:49:06.881Z,99265.50
2023-02-18T02:51:42.654Z,99255.50
2023-02-18T02:54:15.682Z,99255.94
2023-02-18T02:56:44.079Z,99258.34
2023-02-18T02:59:17.525Z,99260.66
2023-02-18T03:02:04.757Z,99255.88
2023-02-18T03:04:55.837Z,99260.78
2023-02-18T03:07:53.924Z,99239.09
2023-02-18T03:10:39.038Z,99237.06
2023-02-18T03:13:16.404Z,99233.72
2023-02-18T03:15:52.508Z,99238.28
2023-02-18T03:18:29.623Z,99228.38
2023-02-18T03:21:01.662Z,99238.31
2023-02-18T03:23:36.136Z,99222.97
2023-02-18T03:26:07.798Z,99222.97
2023-02-18T03:28:37.933Z,99216.91
2023-02-18T03:31:10.934Z,99209.81
2023-02-18T03:33:44.263Z,99205.97
2023-02-18T03:36:14.122Z,99195.34
2023-02-18T03:38:47.193Z,99192.34
2023-02-18T03:41:17.242Z,99189.44
2023-02-18T03:43:51.129Z,99185.81
2023-02-18T03:46:19.911Z,99180.97
2023-02-18T03:48:48.316Z,99188.88
2023-02-18T03:51:16.833Z,99180.34
2023-02-18T03:53:45.334Z,99183.66
2023-02-18T03:56:14.462Z,99180.75
2023-02-18T03:58:44.266Z,99175.28
2023-02-18T04:01:13.344Z,99160.81
2023-02-18T04:03:41.816Z,99172.41
2023-02-18T04:06:10.463Z,99163.00
2023-02-18T04:08:39.047Z,99166.34
2023-02-18T04:11:07.649Z,99160.19
2023-02-18T04:13:36.051Z,99153.00
2023-02-18T04:16:06.777Z,99150.41
2023-02-18T04:18:35.556Z,99152.41
2023-02-18T04:21:03.990Z,99143.53
2023-02-18T04:23:35.535Z,99138.56
2023-02-18T04:26:04.112Z,99139.75
2023-02-18T04:28:32.518Z,99136.25
2023-02-18T04:31:01.125Z,99132.06
2023-02-18T04:33:30.970Z,99128.03
2023-02-18T04:35:59.570Z,99120.75
2023-02-18T04:38:28.015Z,99108.69
2023-02-18T04:40:56.503Z,99118.31
2023-02-18T04:43:24.916Z,99112.38
2023-02-18T04:45:53.501Z,99106.38
2023-02-18T04:48:21.971Z,99105.53
2023-02-18T04:50:51.865Z,99105.22
2023-02-18T04:53:20.295Z,99102.47
2023-02-18T04:55:51.833Z,99086.50
2023-02-18T04:58:20.524Z,99076.03
2023-02-18T05:00:49.307Z,99082.63
2023-02-18T05:03:17.855Z,99076.75
2023-02-18T05:05:47.136Z,99049.75
2023-02-18T05:08:17.073Z,99065.94
2023-02-18T05:10:45.743Z,99060.94
2023-02-18T05:13:14.324Z,99054.91
2023-02-18T05:15:42.960Z,99062.28
2023-02-18T05:18:11.516Z,99058.69
2023-02-18T05:20:40.202Z,99062.78
2023-02-18T05:23:08.613Z,99039.38
2023-02-18T05:25:38.506Z,99046.81
2023-02-18T05:28:07.059Z,99035.91
2023-02-18T05:30:35.538Z,99034.75
2023-02-18T05:33:04.050Z,99042.22
2023-02-18T05:35:32.582Z,99048.38
2023-02-18T05:38:01.026Z,99034.56
2023-02-18T05:40:31.977Z,99024.78
2023-02-18T05:43:02.102Z,99013.69
2023-02-18T05:45:30.706Z,99015.03
2023-02-18T05:47:59.138Z,99025.72
2023-02-18T05:50:27.650Z,99018.06
2023-02-18T05:52:56.099Z,99011.44
2023-02-18T05:55:24.947Z,98995.06
2023-02-18T05:57:53.515Z,99003.47
2023-02-18T06:00:23.662Z,98989.94
2023-02-18T06:02:52.466Z,98993.38
2023-02-18T06:05:21.065Z,98995.19
2023-02-18T06:07:49.639Z,98984.88
2023-02-18T06:10:19.271Z,98989.06
2023-02-18T06:12:47.775Z,98978.19
2023-02-18T06:15:15.966Z,98976.38
2023-02-18T06:17:45.872Z,98970.59
2023-02-18T06:20:14.674Z,98960.84
2023-02-18T06:22:45.895Z,98966.28
2023-02-18T06:25:14.443Z,98951.25
2023-02-18T06:27:45.089Z,98946.03
2023-02-18T06:30:14.345Z,98960.69
2023-02-18T06:32:43.045Z,98938.81
2023-02-18T06:35:13.043Z,98951.22
2023-02-18T06:37:41.609Z,98940.13
2023-02-18T06:40:13.612Z,98934.75
2023-02-18T06:42:42.152Z,98937.81
2023-02-18T06:45:12.895Z,98944.19
2023-02-18T06:47:43.888Z,98929.38
2023-02-18T06:50:14.016Z,98913.53
2023-02-18T06:52:42.583Z,98907.19
2023-02-18T06:55:11.073Z,98918.50
2023-02-18T06:57:39.633Z,98911.34
2023-02-18T07:00:09.405Z,98916.38
2023-02-18T07:02:38.214Z,98898.13
2023-02-18T07:05:06.495Z,98909.31
2023-02-18T07:07:36.414Z,98903.44
2023-02-18T07:10:05.565Z,98899.56
2023-02-18T07:12:37.632Z,98890.88
2023-02-18T07:15:06.940Z,98888.25
2023-02-18T07:17:35.382Z,98902.09
2023-02-18T07:20:03.533Z,98905.31
2023-02-18T07:22:35.631Z,98885.53
2023-02-18T07:25:05.835Z,98888.63
2023-02-18T07:27:34.349Z,98864.06
2023-02-18T07:30:02.917Z,98873.69
2023-02-18T07:32:33.041Z,98873.63
2023-02-18T07:35:01.611Z,98853.69
2023-02-18T07:37:31.615Z,98858.25
2023-02-18T07:40:00.223Z,98858.75
2023-02-18T07:42:30.274Z,98855.03
2023-02-18T07:44:58.802Z,98861.06
2023-02-18T07:47:26.879Z,98838.03
2023-02-18T07:49:55.353Z,98842.69
2023-02-18T07:52:23.545Z,98825.53
2023-02-18T07:54:51.751Z,98829.13
2023-02-18T07:57:20.200Z,98830.25
2023-02-18T07:59:50.153Z,98812.84
2023-02-18T08:02:21.087Z,98808.81
2023-02-18T08:04:50.462Z,98814.25
2023-02-18T08:07:23.736Z,98817.78
2023-02-18T08:09:52.442Z,98811.28
2023-02-18T08:12:20.669Z,98797.16
2023-02-18T08:14:51.410Z,98797.06
2023-02-18T08:17:19.841Z,98788.56
2023-02-18T08:19:47.910Z,98790.59
2023-02-18T08:22:16.389Z,98786.16
2023-02-18T08:24:44.537Z,98772.94
2023-02-18T08:27:13.498Z,98784.56
2023-02-18T08:29:41.986Z,98749.44
2023-02-18T08:32:11.622Z,98746.59
2023-02-18T08:34:40.033Z,98744.69
2023-02-18T08:37:08.529Z,98752.38
2023-02-18T08:39:39.526Z,98747.16
2023-02-18T08:42:08.489Z,98750.50
2023-02-18T08:44:37.009Z,98738.09
2023-02-18T08:47:06.005Z,98737.91
2023-02-18T08:49:55.968Z,98726.50
2023-02-18T08:52:24.899Z,98731.41
2023-02-18T08:54:53.350Z,98732.25
2023-02-18T08:57:21.651Z,98711.44
2023-02-18T08:59:50.372Z,98721.31
2023-02-18T09:02:18.895Z,98711.53
2023-02-18T09:04:47.150Z,98708.00
2023-02-18T09:07:17.009Z,98712.78
2023-02-18T09:09:45.521Z,98705.47
2023-02-18T09:12:13.644Z,98693.09
2023-02-18T09:14:42.230Z,98701.06
2023-02-18T09:17:10.656Z,98689.69
2023-02-18T09:19:39.291Z,98690.25
2023-02-18T09:22:07.665Z,98649.81
2023-02-18T09:24:39.828Z,98682.94
2023-02-18T09:27:11.147Z,98652.13
2023-02-18T09:29:41.142Z,98647.53
2023-02-18T09:32:14.529Z,98648.09
2023-02-18T09:34:48.847Z,98663.88
2023-02-18T09:37:17.327Z,98630.44
2023-02-18T09:39:48.530Z,98622.38
2023-02-18T09:42:20.164Z,98612.22
2023-02-18T09:44:52.443Z,98629.66
2023-02-18T09:47:27.496Z,98640.22
2023-02-18T09:49:59.593Z,98636.78
2023-02-18T09:52:33.190Z,98622.09
2023-02-18T09:55:04.451Z,98606.78
2023-02-18T09:57:42.222Z,98601.34
2023-02-18T10:00:17.301Z,98604.38
2023-02-18T10:02:55.436Z,98620.50
2023-02-18T10:05:35.532Z,98621.38
2023-02-18T10:08:09.947Z,98597.91
2023-02-18T10:10:43.850Z,98611.91
2023-02-18T10:13:15.289Z,98605.31
2023-02-18T10:15:44.983Z,98589.53
2023-02-18T10:18:27.455Z,98605.16
2023-02-18T10:21:04.899Z,98585.00
2023-02-18T10:23:35.580Z,98564.69
2023-02-18T10:26:11.357Z,98586.31
2023-02-18T10:28:39.985Z,98580.53
2023-02-18T10:31:11.549Z,98575.91
2023-02-18T10:33:47.595Z,98560.41
2023-02-18T10:36:26.229Z,98554.81
2023-02-18T10:39:16.510Z,98559.03
2023-02-18T10:41:56.334Z,98543.22
2023-02-18T10:44:33.514Z,98524.88
2023-02-18T10:47:15.540Z,98516.69
2023-02-18T10:50:09.983Z,98518.63
2023-02-18T10:52:42.696Z,98528.00
2023-02-18T10:55:13.078Z,98521.81
2023-02-18T10:57:51.430Z,98513.66
2023-02-18T11:00:24.190Z,98524.28
2023-02-18T11:03:17.722Z,98514.94
2023-02-18T11:05:48.364Z,98505.50
2023-02-18T11:08:21.916Z,98508.09
2023-02-18T11:10:51.322Z,98485.22
2023-02-18T11:13:27.924Z,98490.13
2023-02-18T11:16:00.531Z,98489.66
2023-02-18T11:18:35.297Z,98486.03
2023-02-18T11:21:06.602Z,98506.09
2023-02-18T11:23:48.480Z,98472.19
2023-02-18T11:26:18.781Z,98475.72
2023-02-18T11:28:58.109Z,98480.78
2023-02-18T11:31:28.621Z,98476.97
2023-02-18T11:34:00.813Z,98478.59
2023-02-18T11:36:32.513Z,98463.91
2023-02-18T11:39:04.698Z,98466.72
2023-02-18T11:41:37.366Z,98460.28
2023-02-18T11:44:18.590Z,98452.59
2023-02-18T11:46:59.309Z,98461.00
2023-02-18T11:49:30.435Z,98455.50
2023-02-18T11:52:07.774Z,98453.75
2023-02-18T11:54:36.776Z,98465.25
2023-02-18T11:57:07.662Z,98457.75
2023-02-18T11:59:40.682Z,98451.69
2023-02-18T12:02:27.377Z,98425.03
2023-02-18T12:05:04.452Z,98435.69
2023-02-18T12:07:42.747Z,98432.69
2023-02-18T12:10:17.002Z,98419.41
2023-02-18T12:12:49.640Z,98429.34
2023-02-18T12:15:28.190Z,98428.88
2023-02-18T12:18:10.970Z,98420.78
2023-02-18T12:21:19.218Z,98407.06
2023-02-18T12:23:54.305Z,98409.16
2023-02-18T12:26:27.983Z,98429.03
2023-02-18T12:29:14.956Z,98412.97
2023-02-18T12:32:14.536Z,98407.88
2023-02-18T12:34:58.910Z,98404.66
2023-02-18T12:38:03.685Z,98406.44
2023-02-18T12:40:46.433Z,98409.75
2023-02-18T12:43:23.885Z,98390.44
2023-02-18T12:46:16.981Z,98404.16
2023-02-18T12:49:04.109Z,98395.00
2023-02-18T12:51:53.022Z,98376.38
2023-02-18T12:54:40.626Z,98375.56
2023-02-18T12:57:29.719Z,98390.66
2023-02-18T13:00:20.738Z,98392.94
2023-02-18T13:03:09.756Z,98352.38
2023-02-18T13:05:46.696Z,98358.81
2023-02-18T13:08:38.793Z,98375.78
2023-02-18T13:11:21.146Z,98363.44
2023-02-18T13:13:58.876Z,98366.53
2023-02-18T13:16:28.727Z,98363.25
2023-02-18T13:19:03.790Z,98352.06
2023-02-18T13:21:34.012Z,98357.94
2023-02-18T13:24:06.122Z,98346.97
2023-02-18T13:26:35.924Z,98358.38
2023-02-18T13:29:27.032Z,98353.72
2023-02-18T13:32:08.046Z,98357.22
2023-02-18T13:34:44.243Z,98339.66
2023-02-18T13:37:21.300Z,98338.91
2023-02-18T13:39:54.882Z,98340.44
2023-02-18T13:42:34.763Z,98337.44
2023-02-18T13:45:31.771Z,98334.66
2023-02-18T13:48:01.554Z,98351.50
2023-02-18T13:50:50.375Z,98343.78
2023-02-18T13:53:25.844Z,98318.31
2023-02-18T13:56:04.720Z,98318.34
2023-02-18T13:58:38.278Z,98309.00
2023-02-18T14:01:16.128Z,98315.75
2023-02-18T14:03:59.866Z,98302.16
2023-02-18T14:06:32.014Z,98298.75
2023-02-18T14:09:37.604Z,98310.84
2023-02-18T14:12:36.690Z,98295.75
2023-02-18T14:15:56.224Z,98308.38
2023-02-18T14:18:28.137Z,98306.84
2023-02-18T14:21:19.735Z,98303.13
2023-02-18T14:24:04.119Z,98303.28
2023-02-18T14:26:40.802Z,98291.19
2023-02-18T14:29:16.670Z,98290.16
2023-02-18T14:31:58.318Z,98278.81
2023-02-18T14:35:17.510Z,98275.13
2023-02-18T14:38:21.998Z,98283.53
2023-02-18T14:41:23.846Z,98272.81
2023-02-18T14:44:27.127Z,98285.91
2023-02-18T14:47:12.321Z,98263.84
2023-02-18T14:49:48.438Z,98264.47
2023-02-18T14:52:30.283Z,98248.69
2023-02-18T14:55:01.658Z,98263.34
2023-02-18T14:57:40.042Z,98272.34
2023-02-18T15:00:17.850Z,98259.91
2023-02-18T15:02:50.317Z,98259.28
2023-02-18T15:05:22.000Z,98249.75
2023-02-18T15:07:58.314Z,98260.63
2023-02-18T15:10:36.986Z,98244.44
2023-02-18T15:13:09.563Z,98216.56
2023-02-18T15:15:39.962Z,98246.00
2023-02-18T15:18:19.957Z,98230.25
2023-02-18T15:20:48.806Z,98231.09
2023-02-18T15:23:18.901Z,98231.63
2023-02-18T15:25:54.424Z,98237.91
2023-02-18T15:28:25.566Z,98236.56
2023-02-18T15:30:59.379Z,98234.84
2023-02-18T15:33:28.765Z,98226.75
2023-02-18T15:36:03.240Z,98228.50
2023-02-18T15:38:33.433Z,98198.88
2023-02-18T15:41:04.290Z,98217.19
2023-02-18T15:43:35.233Z,98212.91
2023-02-18T15:46:14.716Z,98213.78
2023-02-18T15:48:48.228Z,98216.66
2023-02-18T15:51:23.778Z,98204.63
2023-02-18T15:53:55.316Z,98201.63
2023-02-18T15:56:31.608Z,98197.78
2023-02-18T15:59:11.512Z,98194.25
2023-02-18T16:01:41.599Z,98194.59
2023-02-18T16:04:17.662Z,98188.16
2023-02-18T16:06:51.726Z,98189.53
2023-02-18T16:09:25.121Z,98197.72
2023-02-18T16:11:59.658Z,98193.44
2023-02-18T16:14:31.939Z,98187.69
2023-02-18T16:17:08.885Z,98190.47
2023-02-18T16:20:03.469Z,98185.75
2023-02-18T16:22:38.832Z,98177.75
2023-02-18T16:25:18.733Z,98172.25
2023-02-18T16:27:51.427Z,98173.50
2023-02-18T16:30:22.284Z,98149.38
2023-02-18T16:32:52.351Z,98155.69
2023-02-18T16:35:21.352Z,98162.81
2023-02-18T16:37:51.359Z,98173.72
2023-02-18T16:40:29.587Z,98143.34
2023-02-18T16:42:59.722Z,98143.88
2023-02-18T16:45:36.471Z,98145.75
2023-02-18T16:48:07.601Z,98154.47
2023-02-18T16:50:36.215Z,98144.41
2023-02-18T16:53:04.707Z,98141.50
2023-02-18T16:55:33.360Z,98153.63
2023-02-18T16:58:01.752Z,98145.25
2023-02-18T17:00:29.983Z,98131.88
2023-02-18T17:03:01.067Z,98142.75
2023-02-18T17:05:35.440Z,98132.78
2023-02-18T17:08:17.182Z,98143.16
2023-02-18T17:10:46.362Z,98132.69
2023-02-18T17:13:16.046Z,98130.44
2023-02-18T17:15:47.583Z,98133.03
2023-02-18T17:18:16.453Z,98128.66
2023-02-18T17:20:48.485Z,98127.41
2023-02-18T17:23:17.833Z,98119.66
2023-02-18T17:25:48.404Z,98109.00
2023-02-18T17:28:19.679Z,98111.19
2023-02-18T17:30:52.129Z,98114.25
2023-02-18T17:33:21.036Z,98111.88
2023-02-18T17:35:51.283Z,98110.97
2023-02-18T17:38:21.228Z,98105.88
2023-02-18T17:40:50.818Z,98106.94
2023-02-18T17:43:20.186Z,98111.38
2023-02-18T17:45:52.060Z,98099.06
2023-02-18T17:48:21.203Z,98101.31
2023-02-18T17:50:52.993Z,98097.19
2023-02-18T17:53:21.606Z,98092.53
2023-02-18T17:55:54.980Z,98094.50
2023-02-18T17:58:23.429Z,98105.59
2023-02-18T18:00:52.863Z,98104.34
2023-02-18T18:03:21.882Z,98083.63
2023-02-18T18:05:54.617Z,98100.00
2023-02-18T18:08:26.244Z,98080.31
2023-02-18T18:10:58.813Z,98091.63
2023-02-18T18:13:29.364Z,98081.69
2023-02-18T18:15:58.269Z,98089.44
2023-02-18T18:18:29.651Z,98086.34
2023-02-18T18:21:02.009Z,98086.22
2023-02-18T18:23:30.663Z,98087.16
2023-02-18T18:26:00.110Z,98076.69
2023-02-18T18:28:32.994Z,98075.56
2023-02-18T18:31:02.769Z,98076.28
2023-02-18T18:33:33.246Z,98081.97
2023-02-18T18:36:03.470Z,98073.78
2023-02-18T18:38:34.625Z,98086.44
2023-02-18T18:41:09.022Z,98070.06
2023-02-18T18:43:39.929Z,98061.38
2023-02-18T18:46:08.632Z,98063.88
2023-02-18T18:48:39.638Z,98069.41
2023-02-18T18:51:16.055Z,98060.44
2023-02-18T18:53:48.757Z,98060.63
2023-02-18T18:56:22.283Z,98061.56
2023-02-18T18:58:54.288Z,98051.31
2023-02-18T19:01:27.427Z,98051.66
2023-02-18T19:03:59.135Z,98050.41
2023-02-18T19:06:29.151Z,98036.31
2023-02-18T19:08:57.728Z,98056.28
2023-02-18T19:11:25.815Z,98041.19
2023-02-18T19:13:54.509Z,98038.84
2023-02-18T19:16:28.744Z,98037.47
2023-02-18T19:19:00.307Z,98044.81
2023-02-18T19:21:32.566Z,98036.25
2023-02-18T19:24:03.195Z,98032.09
2023-02-18T19:26:37.763Z,98033.00
2023-02-18T19:29:06.223Z,98028.69
2023-02-18T19:31:34.538Z,98030.47
2023-02-18T19:34:02.693Z,98035.69
2023-02-18T19:36:32.610Z,98029.69
2023-02-18T19:39:01.082Z,98031.16
2023-02-18T19:41:29.273Z,98025.50
2023-02-18T19:43:57.710Z,98023.31
2023-02-18T19:46:28.709Z,98019.25
2023-02-18T19:48:58.174Z,98019.25
2023-02-18T19:51:28.010Z,98014.09
2023-02-18T19:53:59.062Z,98017.28
2023-02-18T19:56:29.048Z,98015.53
2023-02-18T19:58:58.172Z,98010.44
2023-02-18T20:01:26.803Z,98007.34
2023-02-18T20:03:55.839Z,98005.28
2023-02-18T20:06:26.287Z,98010.38
2023-02-18T20:09:02.661Z,98003.03
2023-02-18T20:11:32.293Z,98001.75
2023-02-18T20:14:01.573Z,98009.44
2023-02-18T20:16:30.369Z,97996.41
2023-02-18T20:19:01.833Z,97999.19
2023-02-18T20:21:30.795Z,98003.31
2023-02-18T20:24:00.891Z,97985.44
2023-02-18T20:26:35.073Z,97995.38
2023-02-18T20:29:05.558Z,97985.75
2023-02-18T20:31:34.470Z,97996.06
2023-02-18T20:34:03.065Z,97988.53
2023-02-18T20:36:31.658Z,97989.59
2023-02-18T20:39:15.309Z,97979.94
2023-02-18T20:41:44.852Z,97982.44
2023-02-18T20:44:17.620Z,97984.41
2023-02-18T20:46:46.617Z,97969.28
2023-02-18T20:49:20.038Z,97980.13
2023-02-18T20:51:51.195Z,97979.84
2023-02-18T20:54:21.217Z,97969.19
2023-02-18T20:56:51.238Z,97977.50
2023-02-18T20:59:21.841Z,97960.63
2023-02-18T21:01:50.831Z,97981.22
2023-02-18T21:04:21.217Z,97967.56
2023-02-18T21:06:50.660Z,97964.56
2023-02-18T21:09:23.080Z,97959.19
2023-02-18T21:11:51.716Z,97960.84
2023-02-18T21:14:20.360Z,97956.50
2023-02-18T21:16:49.040Z,97952.47
2023-02-18T21:19:21.795Z,97954.00
2023-02-18T21:21:50.351Z,97944.81
2023-02-18T21:24:18.454Z,97949.38
2023-02-18T21:26:51.286Z,97947.19
2023-02-18T21:29:19.848Z,97942.84
2023-02-18T21:31:48.313Z,97937.34
2023-02-18T21:34:17.047Z,97949.47
2023-02-18T21:36:45.596Z,97937.56
2023-02-18T21:39:14.213Z,97940.75
2023-02-18T21:41:42.732Z,97943.97
2023-02-18T21:44:12.643Z,97937.66
2023-02-18T21:46:41.984Z,97933.53
2023-02-18T21:49:12.690Z,97936.31
2023-02-18T21:51:59.277Z,97933.63
2023-02-18T21:54:29.918Z,97942.31
2023-02-18T21:56:59.824Z,97931.44
2023-02-18T21:59:31.206Z,97924.53
2023-02-18T22:02:01.025Z,97925.97
2023-02-18T22:04:30.859Z,97927.63
2023-02-18T22:06:59.584Z,97926.94
2023-02-18T22:09:28.476Z,97924.75
2023-02-18T22:11:56.890Z,97918.56
2023-02-18T22:14:25.608Z,97909.44
2023-02-18T22:16:55.410Z,97909.34
2023-02-18T22:19:24.029Z,97909.75
2023-02-18T22:21:53.361Z,97904.69
2023-02-18T22:24:21.804Z,97913.91
2023-02-18T22:26:50.506Z,97908.41
2023-02-18T22:29:20.606Z,97906.44
2023-02-18T22:31:49.674Z,97908.22
2023-02-18T22:34:19.626Z,97909.31
2023-02-18T22:36:48.594Z,97910.28
2023-02-18T22:39:18.044Z,97908.59
2023-02-18T22:41:46.648Z,97899.22
2023-02-18T22:44:17.002Z,97897.25
2023-02-18T22:46:45.521Z,97894.78
2023-02-18T22:49:14.167Z,97895.06
2023-02-18T22:51:45.829Z,97898.38
2023-02-18T22:54:16.743Z,97900.88
2023-02-18T22:56:45.904Z,97895.69
2023-02-18T22:59:16.563Z,97888.44
2023-02-18T23:01:49.526Z,97880.28
2023-02-18T23:04:19.937Z,97899.81
2023-02-18T23:06:50.611Z,97894.03
2023-02-18T23:09:21.226Z,97894.47
2023-02-18T23:11:51.949Z,97883.19
2023-02-18T23:14:21.483Z,97876.34
2023-02-18T23:17:09.365Z,97887.31
2023-02-18T23:19:38.978Z,97883.56
2023-02-18T23:22:13.400Z,97884.06
2023-02-18T23:24:43.744Z,97881.81
2023-02-18T23:27:14.637Z,97877.78
2023-02-18T23:29:43.588Z,97872.63
2023-02-18T23:32:12.277Z,97866.63
2023-02-18T23:34:40.762Z,97880.38
2023-02-18T23:37:10.862Z,97862.88
2023-02-18T23:39:40.055Z,97864.88
2023-02-18T23:42:10.019Z,97870.84
2023-02-18T23:44:38.471Z,97862.69
2023-02-18T23:47:06.506Z,97857.22
2023-02-18T23:49:34.887Z,97857.06
2023-02-18T23:52:02.933Z,97857.34
2023-02-18T23:54:32.658Z,97855.69
2023-02-18T23:57:01.292Z,97855.25
2023-02-18T23:59:29.847Z,97857.25
